sensor_id;sensor_type;location;lat;lon;timestamp;temperature;humidity
52107;DHT22;38105;52.968;5.974;2023-04-03T00:00:05;1.90;99.90
52107;DHT22;38105;52.968;5.974;2023-04-03T00:02:32;1.80;99.90
52107;DHT22;38105;52.968;5.974;2023-04-03T00:04:58;1.80;99.90
52107;DHT22;38105;52.968;5.974;2023-04-03T00:07:24;1.80;99.90
52107;DHT22;38105;52.968;5.974;2023-04-03T00:09:49;1.70;99.90
52107;DHT22;38105;52.968;5.974;2023-04-03T00:12:15;1.70;99.90
52107;DHT22;38105;52.968;5.974;2023-04-03T00:14:41;1.70;99.90
52107;DHT22;38105;52.968;5.974;2023-04-03T00:17:06;1.70;99.90
52107;DHT22;38105;52.968;5.974;2023-04-03T00:19:32;1.60;99.90
52107;DHT22;38105;52.968;5.974;2023-04-03T00:21:58;1.60;99.90
52107;DHT22;38105;52.968;5.974;2023-04-03T00:24:24;1.60;99.90
52107;DHT22;38105;52.968;5.974;2023-04-03T00:26:50;1.60;99.90
52107;DHT22;38105;52.968;5.974;2023-04-03T00:29:15;1.50;99.90
52107;DHT22;38105;52.968;5.974;2023-04-03T00:31:41;1.50;99.90
52107;DHT22;38105;52.968;5.974;2023-04-03T00:34:07;1.50;99.90
52107;DHT22;38105;52.968;5.974;2023-04-03T00:36:32;1.50;99.90
52107;DHT22;38105;52.968;5.974;2023-04-03T00:38:58;1.40;99.90
52107;DHT22;38105;52.968;5.974;2023-04-03T00:41:23;1.40;99.90
52107;DHT22;38105;52.968;5.974;2023-04-03T00:43:50;1.40;99.90
52107;DHT22;38105;52.968;5.974;2023-04-03T00:46:16;1.40;99.90
52107;DHT22;38105;52.968;5.974;2023-04-03T00:48:47;1.30;99.90
52107;DHT22;38105;52.968;5.974;2023-04-03T00:51:17;1.30;99.90
52107;DHT22;38105;52.968;5.974;2023-04-03T00:53:50;1.60;99.90
52107;DHT22;38105;52.968;5.974;2023-04-03T00:56:20;1.20;99.90
52107;DHT22;38105;52.968;5.974;2023-04-03T00:59:01;1.20;99.90
52107;DHT22;38105;52.968;5.974;2023-04-03T01:01:29;1.20;99.90
52107;DHT22;38105;52.968;5.974;2023-04-03T01:03:57;1.20;99.90
52107;DHT22;38105;52.968;5.974;2023-04-03T01:06:27;1.20;99.90
52107;DHT22;38105;52.968;5.974;2023-04-03T01:08:54;1.20;99.90
52107;DHT22;38105;52.968;5.974;2023-04-03T01:11:20;1.10;99.90
52107;DHT22;38105;52.968;5.974;2023-04-03T01:13:46;1.10;99.90
52107;DHT22;38105;52.968;5.974;2023-04-03T01:16:12;1.10;99.90
52107;DHT22;38105;52.968;5.974;2023-04-03T01:18:39;1.00;99.90
52107;DHT22;38105;52.968;5.974;2023-04-03T01:24:15;1.00;99.90
52107;DHT22;38105;52.968;5.974;2023-04-03T01:26:42;1.00;99.90
52107;DHT22;38105;52.968;5.974;2023-04-03T01:29:08;0.90;99.90
52107;DHT22;38105;52.968;5.974;2023-04-03T01:31:54;0.90;99.90
52107;DHT22;38105;52.968;5.974;2023-04-03T01:34:21;0.90;99.90
52107;DHT22;38105;52.968;5.974;2023-04-03T01:36:47;0.80;99.90
52107;DHT22;38105;52.968;5.974;2023-04-03T01:39:14;0.80;99.90
52107;DHT22;38105;52.968;5.974;2023-04-03T01:41:39;0.80;99.90
52107;DHT22;38105;52.968;5.974;2023-04-03T01:44:05;0.80;99.90
52107;DHT22;38105;52.968;5.974;2023-04-03T01:46:31;0.70;99.90
52107;DHT22;38105;52.968;5.974;2023-04-03T01:48:56;0.70;99.90
52107;DHT22;38105;52.968;5.974;2023-04-03T01:51:22;0.70;99.90
52107;DHT22;38105;52.968;5.974;2023-04-03T01:53:48;0.70;99.90
52107;DHT22;38105;52.968;5.974;2023-04-03T01:56:13;0.60;99.90
52107;DHT22;38105;52.968;5.974;2023-04-03T01:58:39;0.60;99.90
52107;DHT22;38105;52.968;5.974;2023-04-03T02:01:05;0.60;99.90
52107;DHT22;38105;52.968;5.974;2023-04-03T02:03:31;0.60;99.90
52107;DHT22;38105;52.968;5.974;2023-04-03T02:05:57;0.60;99.90
52107;DHT22;38105;52.968;5.974;2023-04-03T02:08:22;0.60;99.90
52107;DHT22;38105;52.968;5.974;2023-04-03T02:10:49;0.60;99.90
52107;DHT22;38105;52.968;5.974;2023-04-03T02:13:16;0.50;99.90
52107;DHT22;38105;52.968;5.974;2023-04-03T02:15:42;0.50;99.90
52107;DHT22;38105;52.968;5.974;2023-04-03T02:18:08;0.50;99.90
52107;DHT22;38105;52.968;5.974;2023-04-03T02:20:34;0.40;99.90
52107;DHT22;38105;52.968;5.974;2023-04-03T02:23:00;0.40;99.90
52107;DHT22;38105;52.968;5.974;2023-04-03T02:25:26;0.30;99.90
52107;DHT22;38105;52.968;5.974;2023-04-03T02:27:51;0.30;99.90
52107;DHT22;38105;52.968;5.974;2023-04-03T02:30:17;0.30;99.90
52107;DHT22;38105;52.968;5.974;2023-04-03T02:32:43;0.30;99.90
52107;DHT22;38105;52.968;5.974;2023-04-03T02:35:10;0.30;99.90
52107;DHT22;38105;52.968;5.974;2023-04-03T02:37:36;0.20;99.90
52107;DHT22;38105;52.968;5.974;2023-04-03T02:40:02;0.20;99.90
52107;DHT22;38105;52.968;5.974;2023-04-03T02:42:27;0.20;99.90
52107;DHT22;38105;52.968;5.974;2023-04-03T02:44:53;0.20;99.90
52107;DHT22;38105;52.968;5.974;2023-04-03T02:47:19;0.10;99.90
52107;DHT22;38105;52.968;5.974;2023-04-03T02:49:45;0.10;99.90
52107;DHT22;38105;52.968;5.974;2023-04-03T02:52:12;0.20;99.90
52107;DHT22;38105;52.968;5.974;2023-04-03T02:54:38;0.10;99.90
52107;DHT22;38105;52.968;5.974;2023-04-03T02:57:04;0.10;99.90
52107;DHT22;38105;52.968;5.974;2023-04-03T02:59:29;0.10;99.90
52107;DHT22;38105;52.968;5.974;2023-04-03T03:01:55;0.10;99.90
52107;DHT22;38105;52.968;5.974;2023-04-03T03:04:22;0.10;99.90
52107;DHT22;38105;52.968;5.974;2023-04-03T03:06:48;0.10;99.90
52107;DHT22;38105;52.968;5.974;2023-04-03T03:09:14;0.10;99.90
52107;DHT22;38105;52.968;5.974;2023-04-03T03:11:40;0.10;99.90
52107;DHT22;38105;52.968;5.974;2023-04-03T03:14:05;0.10;99.90
52107;DHT22;38105;52.968;5.974;2023-04-03T03:16:31;0.10;99.90
52107;DHT22;38105;52.968;5.974;2023-04-03T03:18:57;0.00;99.90
52107;DHT22;38105;52.968;5.974;2023-04-03T03:21:22;0.00;99.90
52107;DHT22;38105;52.968;5.974;2023-04-03T03:23:48;0.00;99.90
52107;DHT22;38105;52.968;5.974;2023-04-03T03:26:13;-0.10;99.90
52107;DHT22;38105;52.968;5.974;2023-04-03T03:28:40;-0.10;99.90
52107;DHT22;38105;52.968;5.974;2023-04-03T03:31:06;-0.10;99.90
52107;DHT22;38105;52.968;5.974;2023-04-03T03:33:32;-0.10;99.90
52107;DHT22;38105;52.968;5.974;2023-04-03T03:35:59;-0.10;99.90
52107;DHT22;38105;52.968;5.974;2023-04-03T03:38:25;-0.10;99.90
52107;DHT22;38105;52.968;5.974;2023-04-03T03:40:51;-0.20;99.90
52107;DHT22;38105;52.968;5.974;2023-04-03T03:43:17;-0.20;99.90
52107;DHT22;38105;52.968;5.974;2023-04-03T03:45:43;-0.20;99.90
52107;DHT22;38105;52.968;5.974;2023-04-03T03:48:09;-0.20;99.90
52107;DHT22;38105;52.968;5.974;2023-04-03T03:50:35;-0.30;99.90
52107;DHT22;38105;52.968;5.974;2023-04-03T03:53:01;-0.30;99.90
52107;DHT22;38105;52.968;5.974;2023-04-03T03:55:27;-0.30;99.90
52107;DHT22;38105;52.968;5.974;2023-04-03T03:57:53;-0.30;99.90
52107;DHT22;38105;52.968;5.974;2023-04-03T04:00:19;-0.30;99.90
52107;DHT22;38105;52.968;5.974;2023-04-03T04:02:44;-0.20;99.90
52107;DHT22;38105;52.968;5.974;2023-04-03T04:05:11;-0.30;99.90
52107;DHT22;38105;52.968;5.974;2023-04-03T04:07:37;-0.30;99.90
52107;DHT22;38105;52.968;5.974;2023-04-03T04:10:03;-0.30;99.90
52107;DHT22;38105;52.968;5.974;2023-04-03T04:12:29;-0.40;99.90
52107;DHT22;38105;52.968;5.974;2023-04-03T04:14:54;-0.40;99.90
52107;DHT22;38105;52.968;5.974;2023-04-03T04:17:20;-0.40;99.90
52107;DHT22;38105;52.968;5.974;2023-04-03T04:19:46;-0.40;99.90
52107;DHT22;38105;52.968;5.974;2023-04-03T04:22:12;-0.50;99.90
52107;DHT22;38105;52.968;5.974;2023-04-03T04:24:38;-0.40;99.90
52107;DHT22;38105;52.968;5.974;2023-04-03T04:27:03;-0.40;99.90
52107;DHT22;38105;52.968;5.974;2023-04-03T04:29:29;-0.50;99.90
52107;DHT22;38105;52.968;5.974;2023-04-03T04:31:55;-0.50;99.90
52107;DHT22;38105;52.968;5.974;2023-04-03T04:34:20;-0.50;99.90
52107;DHT22;38105;52.968;5.974;2023-04-03T04:36:46;-0.50;99.90
52107;DHT22;38105;52.968;5.974;2023-04-03T04:39:11;-0.50;99.90
52107;DHT22;38105;52.968;5.974;2023-04-03T04:41:37;-0.50;99.90
52107;DHT22;38105;52.968;5.974;2023-04-03T04:44:03;-0.60;99.90
52107;DHT22;38105;52.968;5.974;2023-04-03T04:46:28;-0.60;99.90
52107;DHT22;38105;52.968;5.974;2023-04-03T04:48:54;-0.60;99.90
52107;DHT22;38105;52.968;5.974;2023-04-03T04:51:19;-0.70;99.90
52107;DHT22;38105;52.968;5.974;2023-04-03T04:53:45;-0.70;99.90
52107;DHT22;38105;52.968;5.974;2023-04-03T04:56:11;-0.70;99.90
52107;DHT22;38105;52.968;5.974;2023-04-03T04:58:37;-0.80;99.90
52107;DHT22;38105;52.968;5.974;2023-04-03T05:01:08;-0.80;99.90
52107;DHT22;38105;52.968;5.974;2023-04-03T05:03:34;-0.80;99.90
52107;DHT22;38105;52.968;5.974;2023-04-03T05:06:00;-0.80;99.90
52107;DHT22;38105;52.968;5.974;2023-04-03T05:08:26;-0.90;99.90
52107;DHT22;38105;52.968;5.974;2023-04-03T05:10:52;-0.90;99.90
52107;DHT22;38105;52.968;5.974;2023-04-03T05:13:19;-0.80;99.90
52107;DHT22;38105;52.968;5.974;2023-04-03T05:15:45;-0.80;99.90
52107;DHT22;38105;52.968;5.974;2023-04-03T05:18:11;-0.80;99.90
52107;DHT22;38105;52.968;5.974;2023-04-03T05:20:37;-0.80;99.90
52107;DHT22;38105;52.968;5.974;2023-04-03T05:23:02;-0.80;99.90
52107;DHT22;38105;52.968;5.974;2023-04-03T05:25:28;-0.80;99.90
52107;DHT22;38105;52.968;5.974;2023-04-03T05:27:54;-0.80;99.90
52107;DHT22;38105;52.968;5.974;2023-04-03T05:30:20;-0.80;99.90
52107;DHT22;38105;52.968;5.974;2023-04-03T05:32:45;-0.70;99.90
52107;DHT22;38105;52.968;5.974;2023-04-03T05:35:11;-0.70;99.90
52107;DHT22;38105;52.968;5.974;2023-04-03T05:37:37;-0.80;99.90
52107;DHT22;38105;52.968;5.974;2023-04-03T05:40:06;-0.80;99.90
52107;DHT22;38105;52.968;5.974;2023-04-03T05:42:32;-0.80;99.90
52107;DHT22;38105;52.968;5.974;2023-04-03T05:44:58;-0.80;99.90
52107;DHT22;38105;52.968;5.974;2023-04-03T05:47:24;-0.70;99.90
52107;DHT22;38105;52.968;5.974;2023-04-03T05:49:49;-0.70;99.90
52107;DHT22;38105;52.968;5.974;2023-04-03T05:52:23;-0.60;99.90
52107;DHT22;38105;52.968;5.974;2023-04-03T05:54:50;-0.50;99.90
52107;DHT22;38105;52.968;5.974;2023-04-03T05:57:16;-0.20;99.90
52107;DHT22;38105;52.968;5.974;2023-04-03T05:59:44;0.90;99.90
52107;DHT22;38105;52.968;5.974;2023-04-03T06:02:15;2.60;99.90
52107;DHT22;38105;52.968;5.974;2023-04-03T06:04:41;4.20;99.90
52107;DHT22;38105;52.968;5.974;2023-04-03T06:07:10;5.60;99.90
52107;DHT22;38105;52.968;5.974;2023-04-03T06:09:37;6.50;99.90
52107;DHT22;38105;52.968;5.974;2023-04-03T06:12:03;7.60;99.90
52107;DHT22;38105;52.968;5.974;2023-04-03T06:14:28;8.00;99.90
52107;DHT22;38105;52.968;5.974;2023-04-03T06:16:54;8.60;99.90
52107;DHT22;38105;52.968;5.974;2023-04-03T06:19:20;9.20;99.90
52107;DHT22;38105;52.968;5.974;2023-04-03T06:21:46;9.50;99.90
52107;DHT22;38105;52.968;5.974;2023-04-03T06:24:15;9.60;99.90
52107;DHT22;38105;52.968;5.974;2023-04-03T06:26:41;9.80;99.90
52107;DHT22;38105;52.968;5.974;2023-04-03T06:29:07;9.90;99.90
52107;DHT22;38105;52.968;5.974;2023-04-03T06:31:33;10.20;99.90
52107;DHT22;38105;52.968;5.974;2023-04-03T06:33:59;10.90;99.90
52107;DHT22;38105;52.968;5.974;2023-04-03T06:36:25;11.20;99.90
52107;DHT22;38105;52.968;5.974;2023-04-03T06:38:51;11.10;99.90
52107;DHT22;38105;52.968;5.974;2023-04-03T06:41:17;11.70;99.90
52107;DHT22;38105;52.968;5.974;2023-04-03T06:43:44;12.20;99.90
52107;DHT22;38105;52.968;5.974;2023-04-03T06:46:19;12.50;99.90
52107;DHT22;38105;52.968;5.974;2023-04-03T06:48:45;12.70;99.90
52107;DHT22;38105;52.968;5.974;2023-04-03T06:51:25;12.70;99.90
52107;DHT22;38105;52.968;5.974;2023-04-03T06:53:52;12.60;99.50
52107;DHT22;38105;52.968;5.974;2023-04-03T06:56:19;13.40;99.50
52107;DHT22;38105;52.968;5.974;2023-04-03T06:58:45;13.20;97.50
52107;DHT22;38105;52.968;5.974;2023-04-03T07:01:13;13.30;98.90
52107;DHT22;38105;52.968;5.974;2023-04-03T07:03:39;13.20;97.30
52107;DHT22;38105;52.968;5.974;2023-04-03T07:06:06;13.10;98.50
52107;DHT22;38105;52.968;5.974;2023-04-03T07:08:33;13.30;98.50
52107;DHT22;38105;52.968;5.974;2023-04-03T07:11:00;14.30;97.70
52107;DHT22;38105;52.968;5.974;2023-04-03T07:13:25;13.60;97.70
52107;DHT22;38105;52.968;5.974;2023-04-03T07:15:52;13.30;97.20
52107;DHT22;38105;52.968;5.974;2023-04-03T07:18:18;13.90;97.00
52107;DHT22;38105;52.968;5.974;2023-04-03T07:20:44;14.00;97.10
52107;DHT22;38105;52.968;5.974;2023-04-03T07:23:09;13.50;96.50
52107;DHT22;38105;52.968;5.974;2023-04-03T07:25:36;13.10;97.80
52107;DHT22;38105;52.968;5.974;2023-04-03T07:28:01;13.50;97.60
52107;DHT22;38105;52.968;5.974;2023-04-03T07:30:27;13.40;96.20
52107;DHT22;38105;52.968;5.974;2023-04-03T07:32:53;13.90;95.40
52107;DHT22;38105;52.968;5.974;2023-04-03T07:35:19;14.20;94.80
52107;DHT22;38105;52.968;5.974;2023-04-03T07:37:44;14.00;93.80
52107;DHT22;38105;52.968;5.974;2023-04-03T07:40:10;13.40;93.70
52107;DHT22;38105;52.968;5.974;2023-04-03T07:42:36;12.50;94.10
52107;DHT22;38105;52.968;5.974;2023-04-03T07:45:03;12.90;94.00
52107;DHT22;38105;52.968;5.974;2023-04-03T07:47:29;13.30;94.50
52107;DHT22;38105;52.968;5.974;2023-04-03T07:49:55;14.00;94.20
52107;DHT22;38105;52.968;5.974;2023-04-03T07:52:22;14.40;92.60
52107;DHT22;38105;52.968;5.974;2023-04-03T07:54:48;14.20;91.40
52107;DHT22;38105;52.968;5.974;2023-04-03T07:57:14;14.80;91.70
52107;DHT22;38105;52.968;5.974;2023-04-03T07:59:40;14.60;90.60
52107;DHT22;38105;52.968;5.974;2023-04-03T08:02:11;14.40;89.40
52107;DHT22;38105;52.968;5.974;2023-04-03T08:04:37;15.50;90.10
52107;DHT22;38105;52.968;5.974;2023-04-03T08:07:03;15.90;93.30
52107;DHT22;38105;52.968;5.974;2023-04-03T08:09:29;15.20;93.80
52107;DHT22;38105;52.968;5.974;2023-04-03T08:11:55;15.00;93.20
52107;DHT22;38105;52.968;5.974;2023-04-03T08:14:20;15.50;92.10
52107;DHT22;38105;52.968;5.974;2023-04-03T08:16:47;15.30;91.50
52107;DHT22;38105;52.968;5.974;2023-04-03T08:19:14;15.20;91.30
52107;DHT22;38105;52.968;5.974;2023-04-03T08:21:41;14.70;85.00
52107;DHT22;38105;52.968;5.974;2023-04-03T08:24:07;14.80;83.30
52107;DHT22;38105;52.968;5.974;2023-04-03T08:26:33;14.60;82.70
52107;DHT22;38105;52.968;5.974;2023-04-03T08:28:59;15.00;88.60
52107;DHT22;38105;52.968;5.974;2023-04-03T08:31:25;14.30;82.60
52107;DHT22;38105;52.968;5.974;2023-04-03T08:33:51;14.90;84.80
52107;DHT22;38105;52.968;5.974;2023-04-03T08:36:25;15.20;84.10
52107;DHT22;38105;52.968;5.974;2023-04-03T08:38:52;15.50;80.60
52107;DHT22;38105;52.968;5.974;2023-04-03T08:41:36;15.90;80.90
52107;DHT22;38105;52.968;5.974;2023-04-03T08:47:43;16.20;79.30
52107;DHT22;38105;52.968;5.974;2023-04-03T08:50:15;15.90;77.30
52107;DHT22;38105;52.968;5.974;2023-04-03T08:52:48;15.20;76.20
52107;DHT22;38105;52.968;5.974;2023-04-03T08:58:09;15.20;78.60
52107;DHT22;38105;52.968;5.974;2023-04-03T09:03:20;15.70;77.20
52107;DHT22;38105;52.968;5.974;2023-04-03T09:08:23;16.40;77.10
52107;DHT22;38105;52.968;5.974;2023-04-03T09:11:43;16.40;75.80
52107;DHT22;38105;52.968;5.974;2023-04-03T09:19:15;17.40;76.60
52107;DHT22;38105;52.968;5.974;2023-04-03T09:21:43;17.50;77.80
52107;DHT22;38105;52.968;5.974;2023-04-03T09:24:11;18.20;78.10
52107;DHT22;38105;52.968;5.974;2023-04-03T09:26:48;18.10;74.50
52107;DHT22;38105;52.968;5.974;2023-04-03T09:29:23;18.10;72.60
52107;DHT22;38105;52.968;5.974;2023-04-03T09:32:02;17.60;74.00
52107;DHT22;38105;52.968;5.974;2023-04-03T09:34:32;16.90;73.40
52107;DHT22;38105;52.968;5.974;2023-04-03T09:37:02;17.00;74.40
52107;DHT22;38105;52.968;5.974;2023-04-03T09:39:32;17.20;75.40
52107;DHT22;38105;52.968;5.974;2023-04-03T09:42:25;17.30;71.60
52107;DHT22;38105;52.968;5.974;2023-04-03T09:44:59;17.20;71.40
52107;DHT22;38105;52.968;5.974;2023-04-03T09:49:54;16.50;71.70
52107;DHT22;38105;52.968;5.974;2023-04-03T09:52:34;17.10;71.80
52107;DHT22;38105;52.968;5.974;2023-04-03T09:55:21;16.80;73.00
52107;DHT22;38105;52.968;5.974;2023-04-03T09:57:59;16.40;73.40
52107;DHT22;38105;52.968;5.974;2023-04-03T10:00:28;16.20;73.20
52107;DHT22;38105;52.968;5.974;2023-04-03T10:02:57;15.70;73.60
52107;DHT22;38105;52.968;5.974;2023-04-03T10:07:51;14.10;73.50
52107;DHT22;38105;52.968;5.974;2023-04-03T10:10:21;13.70;74.40
52107;DHT22;38105;52.968;5.974;2023-04-03T10:13:14;12.60;73.80
52107;DHT22;38105;52.968;5.974;2023-04-03T10:18:33;12.50;77.30
52107;DHT22;38105;52.968;5.974;2023-04-03T10:26:56;12.30;78.10
52107;DHT22;38105;52.968;5.974;2023-04-03T10:35:21;11.50;72.80
52107;DHT22;38105;52.968;5.974;2023-04-03T10:38:01;11.50;74.80
52107;DHT22;38105;52.968;5.974;2023-04-03T10:43:35;10.90;72.40
52107;DHT22;38105;52.968;5.974;2023-04-03T10:46:04;11.00;74.50
52107;DHT22;38105;52.968;5.974;2023-04-03T10:48:54;10.90;74.20
52107;DHT22;38105;52.968;5.974;2023-04-03T10:51:44;11.00;75.00
52107;DHT22;38105;52.968;5.974;2023-04-03T10:54:12;10.90;74.90
52107;DHT22;38105;52.968;5.974;2023-04-03T10:56:41;11.00;77.10
52107;DHT22;38105;52.968;5.974;2023-04-03T10:59:28;11.00;75.00
52107;DHT22;38105;52.968;5.974;2023-04-03T11:01:59;10.90;76.70
52107;DHT22;38105;52.968;5.974;2023-04-03T11:04:28;10.80;74.50
52107;DHT22;38105;52.968;5.974;2023-04-03T11:07:20;11.00;75.40
52107;DHT22;38105;52.968;5.974;2023-04-03T11:09:54;10.90;75.80
52107;DHT22;38105;52.968;5.974;2023-04-03T11:12:26;10.60;76.50
52107;DHT22;38105;52.968;5.974;2023-04-03T11:14:55;10.80;75.50
52107;DHT22;38105;52.968;5.974;2023-04-03T11:17:31;10.50;77.30
52107;DHT22;38105;52.968;5.974;2023-04-03T11:20:30;10.70;75.40
52107;DHT22;38105;52.968;5.974;2023-04-03T11:23:04;10.80;76.00
52107;DHT22;38105;52.968;5.974;2023-04-03T11:25:36;10.70;75.70
52107;DHT22;38105;52.968;5.974;2023-04-03T11:28:06;10.90;78.60
52107;DHT22;38105;52.968;5.974;2023-04-03T11:33:23;10.70;75.10
52107;DHT22;38105;52.968;5.974;2023-04-03T11:36:00;10.40;73.90
52107;DHT22;38105;52.968;5.974;2023-04-03T11:38:34;10.60;77.90
52107;DHT22;38105;52.968;5.974;2023-04-03T11:41:06;10.60;76.90
52107;DHT22;38105;52.968;5.974;2023-04-03T11:43:33;10.50;77.30
52107;DHT22;38105;52.968;5.974;2023-04-03T11:46:01;10.60;78.00
52107;DHT22;38105;52.968;5.974;2023-04-03T11:51:02;10.70;77.20
52107;DHT22;38105;52.968;5.974;2023-04-03T11:53:36;10.80;77.10
52107;DHT22;38105;52.968;5.974;2023-04-03T11:56:04;10.70;77.70
52107;DHT22;38105;52.968;5.974;2023-04-03T12:01:57;10.60;76.70
52107;DHT22;38105;52.968;5.974;2023-04-03T12:04:27;10.70;78.60
52107;DHT22;38105;52.968;5.974;2023-04-03T12:07:09;10.60;76.30
52107;DHT22;38105;52.968;5.974;2023-04-03T12:12:32;10.80;79.70
52107;DHT22;38105;52.968;5.974;2023-04-03T12:15:24;10.70;77.10
52107;DHT22;38105;52.968;5.974;2023-04-03T12:17:50;10.70;78.30
52107;DHT22;38105;52.968;5.974;2023-04-03T12:25:51;10.40;76.00
52107;DHT22;38105;52.968;5.974;2023-04-03T12:28:17;10.40;76.50
52107;DHT22;38105;52.968;5.974;2023-04-03T12:30:43;10.40;77.30
52107;DHT22;38105;52.968;5.974;2023-04-03T12:33:36;10.60;76.50
52107;DHT22;38105;52.968;5.974;2023-04-03T12:36:07;10.60;76.50
52107;DHT22;38105;52.968;5.974;2023-04-03T12:39:33;10.30;77.30
52107;DHT22;38105;52.968;5.974;2023-04-03T12:44:20;10.40;79.10
52107;DHT22;38105;52.968;5.974;2023-04-03T12:46:52;10.40;79.70
52107;DHT22;38105;52.968;5.974;2023-04-03T12:49:32;10.30;76.70
52107;DHT22;38105;52.968;5.974;2023-04-03T12:51:58;10.10;76.10
52107;DHT22;38105;52.968;5.974;2023-04-03T12:54:32;10.30;78.20
52107;DHT22;38105;52.968;5.974;2023-04-03T12:59:37;10.10;76.60
52107;DHT22;38105;52.968;5.974;2023-04-03T13:02:15;10.10;78.10
52107;DHT22;38105;52.968;5.974;2023-04-03T13:04:43;10.10;79.40
52107;DHT22;38105;52.968;5.974;2023-04-03T13:07:24;10.10;78.20
52107;DHT22;38105;52.968;5.974;2023-04-03T13:10:24;9.90;76.90
52107;DHT22;38105;52.968;5.974;2023-04-03T13:12:54;9.80;78.70
52107;DHT22;38105;52.968;5.974;2023-04-03T13:15:39;9.90;78.40
52107;DHT22;38105;52.968;5.974;2023-04-03T13:18:05;10.00;82.70
52107;DHT22;38105;52.968;5.974;2023-04-03T13:20:47;9.70;77.60
52107;DHT22;38105;52.968;5.974;2023-04-03T13:23:16;10.00;82.60
52107;DHT22;38105;52.968;5.974;2023-04-03T13:25:44;9.90;80.10
52107;DHT22;38105;52.968;5.974;2023-04-03T13:28:17;9.90;81.90
52107;DHT22;38105;52.968;5.974;2023-04-03T13:31:06;9.90;81.60
52107;DHT22;38105;52.968;5.974;2023-04-03T13:33:34;10.00;82.30
52107;DHT22;38105;52.968;5.974;2023-04-03T13:38:30;10.30;81.70
52107;DHT22;38105;52.968;5.974;2023-04-03T13:41:02;10.40;85.00
52107;DHT22;38105;52.968;5.974;2023-04-03T13:43:31;10.40;81.70
52107;DHT22;38105;52.968;5.974;2023-04-03T13:46:02;10.50;86.00
52107;DHT22;38105;52.968;5.974;2023-04-03T13:48:43;10.20;79.90
52107;DHT22;38105;52.968;5.974;2023-04-03T13:53:46;10.10;81.50
52107;DHT22;38105;52.968;5.974;2023-04-03T13:56:21;10.20;84.10
52107;DHT22;38105;52.968;5.974;2023-04-03T13:59:02;10.20;83.20
52107;DHT22;38105;52.968;5.974;2023-04-03T14:04:18;10.20;83.40
52107;DHT22;38105;52.968;5.974;2023-04-03T14:06:45;10.20;83.00
52107;DHT22;38105;52.968;5.974;2023-04-03T14:09:11;10.30;84.30
52107;DHT22;38105;52.968;5.974;2023-04-03T14:11:37;10.10;83.20
52107;DHT22;38105;52.968;5.974;2023-04-03T14:14:39;10.10;85.20
52107;DHT22;38105;52.968;5.974;2023-04-03T14:17:00;10.10;84.30
52107;DHT22;38105;52.968;5.974;2023-04-03T14:19:33;10.00;82.70
52107;DHT22;38105;52.968;5.974;2023-04-03T14:22:00;10.10;85.40
52107;DHT22;38105;52.968;5.974;2023-04-03T14:24:26;10.10;83.20
52107;DHT22;38105;52.968;5.974;2023-04-03T14:26:54;10.10;83.80
52107;DHT22;38105;52.968;5.974;2023-04-03T14:29:20;10.10;84.10
52107;DHT22;38105;52.968;5.974;2023-04-03T14:31:48;10.00;83.10
52107;DHT22;38105;52.968;5.974;2023-04-03T14:34:14;10.10;84.80
52107;DHT22;38105;52.968;5.974;2023-04-03T14:36:42;10.10;84.60
52107;DHT22;38105;52.968;5.974;2023-04-03T14:39:11;10.10;84.10
52107;DHT22;38105;52.968;5.974;2023-04-03T14:41:41;10.00;83.50
52107;DHT22;38105;52.968;5.974;2023-04-03T14:44:07;10.00;81.70
52107;DHT22;38105;52.968;5.974;2023-04-03T14:46:35;9.90;80.00
52107;DHT22;38105;52.968;5.974;2023-04-03T14:49:02;9.90;82.90
52107;DHT22;38105;52.968;5.974;2023-04-03T14:51:28;9.80;83.20
52107;DHT22;38105;52.968;5.974;2023-04-03T14:53:53;9.90;83.30
52107;DHT22;38105;52.968;5.974;2023-04-03T14:56:24;9.80;83.10
52107;DHT22;38105;52.968;5.974;2023-04-03T14:58:58;9.80;81.60
52107;DHT22;38105;52.968;5.974;2023-04-03T15:01:24;9.70;82.60
52107;DHT22;38105;52.968;5.974;2023-04-03T15:03:50;9.70;86.10
52107;DHT22;38105;52.968;5.974;2023-04-03T15:06:16;9.70;86.40
52107;DHT22;38105;52.968;5.974;2023-04-03T15:08:43;9.80;84.60
52107;DHT22;38105;52.968;5.974;2023-04-03T15:11:09;9.70;83.80
52107;DHT22;38105;52.968;5.974;2023-04-03T15:13:36;9.70;84.40
52107;DHT22;38105;52.968;5.974;2023-04-03T15:16:01;9.80;84.00
52107;DHT22;38105;52.968;5.974;2023-04-03T15:18:32;9.70;83.40
52107;DHT22;38105;52.968;5.974;2023-04-03T15:21:01;9.70;83.40
52107;DHT22;38105;52.968;5.974;2023-04-03T15:23:27;9.60;83.00
52107;DHT22;38105;52.968;5.974;2023-04-03T15:25:53;9.60;83.80
52107;DHT22;38105;52.968;5.974;2023-04-03T15:28:33;9.60;84.30
52107;DHT22;38105;52.968;5.974;2023-04-03T15:31:00;9.70;84.40
52107;DHT22;38105;52.968;5.974;2023-04-03T15:33:26;9.60;85.40
52107;DHT22;38105;52.968;5.974;2023-04-03T15:35:52;9.70;85.90
52107;DHT22;38105;52.968;5.974;2023-04-03T15:38:18;9.70;86.50
52107;DHT22;38105;52.968;5.974;2023-04-03T15:40:43;9.70;85.00
52107;DHT22;38105;52.968;5.974;2023-04-03T15:43:09;9.60;87.70
52107;DHT22;38105;52.968;5.974;2023-04-03T15:45:36;9.60;86.00
52107;DHT22;38105;52.968;5.974;2023-04-03T15:48:03;9.60;87.30
52107;DHT22;38105;52.968;5.974;2023-04-03T15:50:30;9.50;88.10
52107;DHT22;38105;52.968;5.974;2023-04-03T15:52:56;9.60;87.70
52107;DHT22;38105;52.968;5.974;2023-04-03T15:55:27;9.50;87.60
52107;DHT22;38105;52.968;5.974;2023-04-03T15:57:53;9.40;87.10
52107;DHT22;38105;52.968;5.974;2023-04-03T16:00:20;9.50;88.80
52107;DHT22;38105;52.968;5.974;2023-04-03T16:02:47;9.40;87.10
52107;DHT22;38105;52.968;5.974;2023-04-03T16:05:14;9.40;86.90
52107;DHT22;38105;52.968;5.974;2023-04-03T16:07:41;9.30;88.10
52107;DHT22;38105;52.968;5.974;2023-04-03T16:10:08;9.30;88.20
52107;DHT22;38105;52.968;5.974;2023-04-03T16:12:35;9.20;86.60
52107;DHT22;38105;52.968;5.974;2023-04-03T16:15:00;9.10;87.60
52107;DHT22;38105;52.968;5.974;2023-04-03T16:17:27;9.10;89.40
52107;DHT22;38105;52.968;5.974;2023-04-03T16:19:54;9.10;90.40
52107;DHT22;38105;52.968;5.974;2023-04-03T16:22:21;9.10;89.10
52107;DHT22;38105;52.968;5.974;2023-04-03T16:24:49;9.00;89.30
52107;DHT22;38105;52.968;5.974;2023-04-03T16:27:15;9.00;90.20
52107;DHT22;38105;52.968;5.974;2023-04-03T16:29:41;8.90;90.40
52107;DHT22;38105;52.968;5.974;2023-04-03T16:32:06;8.90;90.60
52107;DHT22;38105;52.968;5.974;2023-04-03T16:34:32;8.80;92.00
52107;DHT22;38105;52.968;5.974;2023-04-03T16:36:59;8.80;91.60
52107;DHT22;38105;52.968;5.974;2023-04-03T16:39:25;8.70;92.70
52107;DHT22;38105;52.968;5.974;2023-04-03T16:41:50;8.70;93.80
52107;DHT22;38105;52.968;5.974;2023-04-03T16:44:16;8.60;94.40
52107;DHT22;38105;52.968;5.974;2023-04-03T16:46:42;8.60;93.80
52107;DHT22;38105;52.968;5.974;2023-04-03T16:49:07;8.50;94.60
52107;DHT22;38105;52.968;5.974;2023-04-03T16:51:33;8.50;94.60
52107;DHT22;38105;52.968;5.974;2023-04-03T16:53:59;8.40;95.10
52107;DHT22;38105;52.968;5.974;2023-04-03T16:56:25;8.40;97.20
52107;DHT22;38105;52.968;5.974;2023-04-03T16:58:52;8.30;98.30